Time;durP1;ratioP1;P1;durP2;ratioP2;P2;SDS_P1;SDS_P2;PMS_P1;PMS_P2;Temp;Humidity;BMP_temperature;BMP_pressure;BME280_temperature;BME280_humidity;BME280_pressure;Samples;Min_cycle;Max_cycle;Signal;HPM_P1;HPM_P2
2023/09/07 00:00:15;;;;;;;4.95;3.58;;;22.10;51.00;;;;;;4962277;28;20484;-56
2023/09/07 00:02:42;;;;;;;4.53;3.40;;;22.00;51.10;;;;;;4960937;28;20055;-56
2023/09/07 00:05:10;;;;;;;4.22;3.10;;;22.10;51.20;;;;;;4960742;28;20051;-54
2023/09/07 00:07:37;;;;;;;3.78;3.05;;;22.00;51.10;;;;;;4962496;28;20070;-56
2023/09/07 00:10:05;;;;;;;4.50;3.20;;;22.10;51.20;;;;;;4961315;28;20058;-56
2023/09/07 00:12:33;;;;;;;5.80;3.38;;;22.00;51.30;;;;;;4961558;28;20058;-56
2023/09/07 00:15:01;;;;;;;4.40;3.17;;;22.00;51.30;;;;;;4960790;28;20437;-54
2023/09/07 00:24:16;;;;;;;6.80;3.30;;;22.00;51.40;;;;;;4971259;28;20065;-55
2023/09/07 00:26:43;;;;;;;5.38;3.03;;;22.00;51.30;;;;;;4965563;28;20065;-57
2023/09/07 00:29:10;;;;;;;5.35;3.70;;;21.90;51.40;;;;;;4965557;28;20054;-56
2023/09/07 00:31:37;;;;;;;4.55;3.42;;;21.90;51.50;;;;;;4964521;28;20074;-56
2023/09/07 00:34:04;;;;;;;4.88;3.60;;;21.90;51.50;;;;;;4965969;28;20058;-56
2023/09/07 00:36:32;;;;;;;4.90;3.72;;;21.90;51.60;;;;;;4964437;28;20057;-56
2023/09/07 00:39:00;;;;;;;5.35;3.35;;;21.90;51.60;;;;;;4965109;28;20055;-56
2023/09/07 00:41:28;;;;;;;8.90;3.95;;;21.90;51.70;;;;;;4964918;28;20050;-45
2023/09/07 00:43:55;;;;;;;4.93;3.78;;;21.80;51.70;;;;;;4966212;28;20106;-43
2023/09/07 00:49:45;;;;;;;5.35;3.60;;;21.80;51.80;;;;;;4964410;28;20058;-46
2023/09/07 00:52:12;;;;;;;9.60;3.88;;;21.80;51.70;;;;;;4964589;28;20062;-51
2023/09/07 00:54:40;;;;;;;4.85;3.25;;;21.80;51.80;;;;;;4964519;28;20513;-50
2023/09/07 00:57:09;;;;;;;7.55;3.65;;;21.70;51.80;;;;;;4964546;28;20057;-43
2023/09/07 00:59:37;;;;;;;4.88;3.50;;;21.70;51.90;;;;;;4964068;28;20455;-55
2023/09/07 01:02:05;;;;;;;5.38;3.70;;;21.70;51.80;;;;;;4964894;28;20063;-45
2023/09/07 01:04:32;;;;;;;4.53;3.45;;;21.70;51.80;;;;;;4964330;28;20055;-45
2023/09/07 01:07:06;;;;;;;4.50;3.47;;;21.60;51.80;;;;;;4962938;28;20058;-43
2023/09/07 01:09:37;;;;;;;4.05;3.33;;;21.60;51.90;;;;;;4964622;28;20063;-46
2023/09/07 01:12:10;;;;;;;4.32;3.55;;;21.60;51.90;;;;;;4963867;28;20054;-49
2023/09/07 01:14:38;;;;;;;5.85;3.47;;;21.50;51.90;;;;;;4963306;28;20131;-55
2023/09/07 01:17:07;;;;;;;6.20;3.67;;;21.50;52.00;;;;;;4964038;28;20058;-53
2023/09/07 01:19:34;;;;;;;5.40;3.28;;;21.50;52.00;;;;;;4964957;28;20063;-44
2023/09/07 01:22:03;;;;;;;4.82;3.35;;;21.50;52.10;;;;;;4962144;28;20066;-44
2023/09/07 01:24:32;;;;;;;4.40;3.10;;;21.50;52.10;;;;;;4964329;28;20065;-47
2023/09/07 01:27:00;;;;;;;5.93;3.78;;;21.40;52.10;;;;;;4963930;28;20054;-49
2023/09/07 01:29:29;;;;;;;6.38;3.78;;;21.40;52.10;;;;;;4963180;28;20070;-50
2023/09/07 01:31:56;;;;;;;4.13;3.45;;;21.40;52.20;;;;;;4965051;28;20062;-46
2023/09/07 01:34:24;;;;;;;6.28;3.40;;;21.40;52.70;;;;;;4964091;28;20413;-49
2023/09/07 01:36:51;;;;;;;6.53;3.65;;;21.30;52.20;;;;;;4963295;28;20058;-44
2023/09/07 01:39:20;;;;;;;6.20;3.55;;;21.30;52.30;;;;;;4963166;28;20066;-51
2023/09/07 01:41:47;;;;;;;6.38;3.65;;;21.30;52.30;;;;;;4963875;28;20070;-44
2023/09/07 01:44:14;;;;;;;7.10;3.28;;;21.30;52.40;;;;;;4963367;28;20423;-45
2023/09/07 01:46:42;;;;;;;5.35;3.42;;;21.30;52.40;;;;;;4963955;28;20050;-43
2023/09/07 01:49:09;;;;;;;4.93;3.53;;;21.20;52.40;;;;;;4964986;28;20062;-43
2023/09/07 01:51:36;;;;;;;4.18;3.22;;;21.30;52.50;;;;;;4962882;28;20054;-55
2023/09/07 01:54:05;;;;;;;10.38;3.70;;;21.30;52.60;;;;;;4964221;28;20070;-53
2023/09/07 01:56:33;;;;;;;5.85;3.40;;;21.20;52.60;;;;;;4946750;28;20563;-55
2023/09/07 01:59:01;;;;;;;4.43;3.30;;;21.20;52.60;;;;;;4964309;28;20063;-55
2023/09/07 02:01:30;;;;;;;4.22;3.53;;;21.20;52.60;;;;;;4963853;28;20089;-54
2023/09/07 02:03:58;;;;;;;6.13;4.30;;;21.20;52.70;;;;;;4964062;28;20139;-55
2023/09/07 02:06:25;;;;;;;4.10;3.22;;;21.20;52.70;;;;;;4962450;28;20062;-55
2023/09/07 02:08:52;;;;;;;4.10;3.20;;;21.20;52.70;;;;;;4963771;28;20062;-56
2023/09/07 02:11:19;;;;;;;6.93;3.50;;;21.10;52.70;;;;;;4963617;28;20070;-55
2023/09/07 02:13:49;;;;;;;6.68;4.03;;;21.20;52.80;;;;;;4963524;28;20073;-55
2023/09/07 02:16:18;;;;;;;7.57;3.80;;;21.10;52.80;;;;;;4963560;28;20062;-56
2023/09/07 02:18:46;;;;;;;6.28;3.65;;;21.10;52.80;;;;;;4962524;28;20051;-54
2023/09/07 02:21:14;;;;;;;6.50;3.85;;;21.10;52.80;;;;;;4962294;28;20506;-55
2023/09/07 02:23:41;;;;;;;4.60;3.50;;;21.10;52.80;;;;;;4963197;28;20530;-53
2023/09/07 02:26:08;;;;;;;4.30;3.45;;;21.10;52.90;;;;;;4964315;28;20054;-54
2023/09/07 02:28:36;;;;;;;4.78;3.67;;;21.00;52.90;;;;;;4963481;28;20499;-53
2023/09/07 02:31:08;;;;;;;6.10;4.03;;;21.00;52.90;;;;;;4962963;28;20069;-55
2023/09/07 02:33:35;;;;;;;4.75;3.38;;;21.00;52.90;;;;;;4962958;28;20062;-55
2023/09/07 02:36:02;;;;;;;4.70;3.38;;;21.00;52.90;;;;;;4961556;28;20051;-55
2023/09/07 02:38:30;;;;;;;4.15;3.22;;;20.90;52.90;;;;;;4962283;28;20498;-56
2023/09/07 02:40:58;;;;;;;5.15;3.20;;;20.90;52.90;;;;;;4963796;28;20058;-55
2023/09/07 02:43:25;;;;;;;4.80;3.55;;;20.90;53.00;;;;;;4962768;28;20062;-53
2023/09/07 02:45:52;;;;;;;5.28;3.58;;;20.90;53.00;;;;;;4962604;28;20055;-55
2023/09/07 02:48:21;;;;;;;5.97;3.50;;;20.80;53.00;;;;;;4962913;28;20058;-55
2023/09/07 02:50:50;;;;;;;5.47;3.45;;;20.80;53.10;;;;;;4961474;28;20067;-55
2023/09/07 02:53:17;;;;;;;4.55;3.33;;;20.80;53.10;;;;;;4963530;28;20073;-55
2023/09/07 02:55:44;;;;;;;4.45;3.45;;;20.80;53.10;;;;;;4963309;28;20492;-55
2023/09/07 02:58:12;;;;;;;4.82;3.53;;;20.70;53.10;;;;;;4962213;28;20055;-54
2023/09/07 03:00:44;;;;;;;7.50;4.00;;;20.70;53.10;;;;;;4962564;28;20403;-55
2023/09/07 03:03:12;;;;;;;4.18;3.42;;;20.60;53.20;;;;;;4962380;28;20062;-54
2023/09/07 03:05:41;;;;;;;4.90;3.55;;;20.60;53.20;;;;;;4959616;28;20511;-55
2023/09/07 03:08:08;;;;;;;5.43;3.83;;;20.60;53.20;;;;;;4963532;28;20510;-54
2023/09/07 03:10:36;;;;;;;5.75;3.65;;;20.60;53.20;;;;;;4962502;28;20404;-54
2023/09/07 03:13:04;;;;;;;6.18;3.83;;;20.60;53.20;;;;;;4962937;28;20483;-55
2023/09/07 03:15:31;;;;;;;5.40;3.13;;;20.60;53.30;;;;;;4961760;28;20074;-56
2023/09/07 03:17:59;;;;;;;6.72;3.22;;;20.50;53.20;;;;;;4962976;28;20059;-55
2023/09/07 03:20:26;;;;;;;5.07;3.60;;;20.50;53.30;;;;;;4960489;28;20061;-55
2023/09/07 03:22:56;;;;;;;4.32;3.30;;;20.50;53.40;;;;;;4962722;28;20063;-56
2023/09/07 03:25:23;;;;;;;4.32;3.63;;;20.50;53.40;;;;;;4961934;28;20403;-55
2023/09/07 03:27:50;;;;;;;5.07;3.72;;;20.40;53.40;;;;;;4961983;28;21533;-56
2023/09/07 03:30:18;;;;;;;4.63;3.35;;;20.40;53.40;;;;;;4961689;28;20070;-55
2023/09/07 03:32:46;;;;;;;4.60;3.20;;;20.40;53.40;;;;;;4962529;28;21445;-56
2023/09/07 03:35:13;;;;;;;6.70;3.50;;;20.40;53.40;;;;;;4961227;28;20418;-55
2023/09/07 03:37:43;;;;;;;4.47;3.30;;;20.40;53.50;;;;;;4961083;28;20047;-55
2023/09/07 03:40:11;;;;;;;5.55;3.47;;;20.40;53.50;;;;;;4960835;28;20054;-55
2023/09/07 03:42:39;;;;;;;4.30;3.50;;;20.30;53.50;;;;;;4962024;28;20051;-54
2023/09/07 03:45:07;;;;;;;5.90;3.70;;;20.30;53.50;;;;;;4962101;28;20055;-54
2023/09/07 03:47:34;;;;;;;4.72;3.35;;;20.30;53.50;;;;;;4962345;28;20054;-55
2023/09/07 03:50:01;;;;;;;4.90;3.25;;;20.30;53.50;;;;;;4962686;28;20058;-55
2023/09/07 03:52:28;;;;;;;3.78;3.15;;;20.30;53.50;;;;;;4962033;28;20065;-51
2023/09/07 03:54:57;;;;;;;5.55;3.45;;;20.30;53.50;;;;;;4965576;28;20062;-51
2023/09/07 03:57:27;;;;;;;5.38;3.20;;;20.20;53.50;;;;;;4965183;28;20050;-56
2023/09/07 03:59:55;;;;;;;5.05;3.17;;;20.20;53.60;;;;;;4966035;28;20057;-55
2023/09/07 04:02:22;;;;;;;6.28;3.70;;;20.20;53.60;;;;;;4966138;28;20062;-56
2023/09/07 04:04:50;;;;;;;4.43;3.20;;;20.20;53.60;;;;;;4962016;28;20065;-55
2023/09/07 04:07:18;;;;;;;3.65;2.92;;;20.20;53.70;;;;;;4985502;28;20062;-54
2023/09/07 04:09:46;;;;;;;6.18;3.47;;;20.20;53.70;;;;;;4985244;28;20054;-47
2023/09/07 04:12:13;;;;;;;4.45;3.33;;;20.20;53.70;;;;;;4983676;28;20057;-49
2023/09/07 04:14:42;;;;;;;4.95;3.55;;;20.10;53.70;;;;;;4984709;28;20711;-50
2023/09/07 04:17:09;;;;;;;5.45;3.20;;;20.10;53.70;;;;;;4983709;28;20053;-45
2023/09/07 04:19:36;;;;;;;5.25;3.45;;;20.10;53.80;;;;;;4984679;28;20394;-54
2023/09/07 04:22:04;;;;;;;3.53;2.67;;;20.10;53.80;;;;;;4983918;28;20058;-53
2023/09/07 04:24:32;;;;;;;7.65;3.28;;;20.10;53.80;;;;;;4981900;28;20046;-48
2023/09/07 04:27:00;;;;;;;6.22;3.08;;;20.10;53.80;;;;;;4984099;28;20490;-45
2023/09/07 04:29:28;;;;;;;5.43;3.60;;;20.10;53.80;;;;;;4984557;28;20065;-50
2023/09/07 04:31:57;;;;;;;4.53;3.25;;;20.10;53.90;;;;;;4984548;28;20113;-54
2023/09/07 04:34:24;;;;;;;4.55;3.40;;;20.00;53.90;;;;;;4984512;28;20057;-51
2023/09/07 04:36:52;;;;;;;5.03;3.67;;;20.00;53.90;;;;;;4983367;28;20054;-45
2023/09/07 04:39:19;;;;;;;8.80;3.80;;;20.00;53.90;;;;;;4985008;28;20062;-52
2023/09/07 04:41:46;;;;;;;4.10;3.22;;;20.00;53.90;;;;;;4983761;28;20054;-51
2023/09/07 04:44:13;;;;;;;5.25;3.33;;;20.00;53.90;;;;;;4985022;28;20065;-49
2023/09/07 04:46:40;;;;;;;4.97;3.33;;;20.00;53.90;;;;;;4983349;28;20050;-47
2023/09/07 04:49:09;;;;;;;6.07;3.08;;;20.00;53.90;;;;;;4984288;28;20054;-52
2023/09/07 04:51:36;;;;;;;6.15;3.03;;;19.90;53.90;;;;;;4982707;28;20046;-47
2023/09/07 04:54:04;;;;;;;5.13;3.30;;;19.90;53.90;;;;;;4981785;28;20050;-46
2023/09/07 04:56:31;;;;;;;4.65;3.65;;;19.90;53.90;;;;;;4984912;28;20054;-47
2023/09/07 04:58:58;;;;;;;5.70;3.30;;;19.90;53.90;;;;;;4984248;28;20065;-45
2023/09/07 05:01:26;;;;;;;5.15;3.55;;;19.90;54.00;;;;;;4983544;28;20069;-47
2023/09/07 05:03:54;;;;;;;5.05;3.15;;;19.80;54.00;;;;;;4983203;28;20062;-45
2023/09/07 05:06:23;;;;;;;6.90;3.35;;;19.90;54.00;;;;;;4981103;28;20121;-46
2023/09/07 05:08:50;;;;;;;6.00;3.53;;;19.80;54.00;;;;;;4984066;28;20517;-52
2023/09/07 05:11:18;;;;;;;6.22;3.70;;;19.80;54.10;;;;;;4984224;28;20059;-50
2023/09/07 05:13:45;;;;;;;4.22;3.60;;;19.80;54.10;;;;;;4983696;28;20065;-48
2023/09/07 05:16:12;;;;;;;5.28;3.40;;;19.80;54.10;;;;;;4983422;28;20438;-48
2023/09/07 05:18:42;;;;;;;6.22;3.70;;;19.80;54.20;;;;;;4983831;28;20498;-50
2023/09/07 05:21:13;;;;;;;4.72;3.20;;;19.80;54.30;;;;;;4982138;28;20053;-54
2023/09/07 05:23:42;;;;;;;5.05;3.40;;;19.80;54.30;;;;;;4984510;28;20054;-55
2023/09/07 05:26:10;;;;;;;4.57;3.25;;;19.70;54.30;;;;;;4983257;28;20058;-55
2023/09/07 05:28:37;;;;;;;5.18;3.78;;;19.80;54.40;;;;;;4983396;28;20073;-53
2023/09/07 05:31:04;;;;;;;4.07;3.22;;;19.70;54.40;;;;;;4982574;28;20518;-55
2023/09/07 05:33:31;;;;;;;5.00;3.22;;;19.70;54.40;;;;;;4983363;28;20054;-56
2023/09/07 05:35:59;;;;;;;5.20;3.22;;;19.80;54.50;;;;;;4982187;28;20054;-54
2023/09/07 05:38:26;;;;;;;6.57;3.25;;;19.70;54.50;;;;;;4983316;28;20054;-55
2023/09/07 05:40:54;;;;;;;6.03;3.47;;;19.70;54.60;;;;;;4983442;28;20061;-55
2023/09/07 05:43:22;;;;;;;5.18;3.58;;;19.70;54.70;;;;;;4983251;28;20062;-55
2023/09/07 05:45:49;;;;;;;3.38;2.90;;;19.70;54.70;;;;;;4983452;28;20058;-55
2023/09/07 05:48:17;;;;;;;4.93;3.35;;;19.80;54.80;;;;;;4983008;28;20081;-56
2023/09/07 05:50:45;;;;;;;4.85;3.45;;;19.80;54.90;;;;;;4982615;28;20055;-56
2023/09/07 05:53:12;;;;;;;4.85;3.67;;;19.80;54.90;;;;;;4983229;28;20050;-55
2023/09/07 05:55:39;;;;;;;5.45;3.95;;;19.80;55.00;;;;;;4982462;28;20062;-56
2023/09/07 05:58:09;;;;;;;5.88;3.60;;;19.80;55.00;;;;;;4982021;28;20050;-54
2023/09/07 06:00:39;;;;;;;4.57;3.03;;;19.80;55.10;;;;;;4983059;28;20519;-55
2023/09/07 06:03:07;;;;;;;4.95;3.50;;;19.90;55.10;;;;;;4982760;28;20513;-53
2023/09/07 06:05:35;;;;;;;5.72;3.72;;;19.90;55.20;;;;;;4981962;28;20054;-55
2023/09/07 06:08:02;;;;;;;4.65;3.42;;;19.90;55.20;;;;;;4982702;28;20045;-54
2023/09/07 06:10:30;;;;;;;4.18;3.05;;;19.90;55.20;;;;;;4983718;28;20407;-55
2023/09/07 06:12:57;;;;;;;5.78;3.53;;;20.00;55.40;;;;;;4982598;28;20063;-53
2023/09/07 06:15:27;;;;;;;4.07;3.45;;;20.00;55.40;;;;;;4982843;28;20046;-55
2023/09/07 06:17:55;;;;;;;5.22;3.42;;;20.00;55.50;;;;;;4983502;28;20058;-54
2023/09/07 06:20:22;;;;;;;4.97;3.60;;;20.00;55.40;;;;;;4982724;28;20062;-55
2023/09/07 06:22:50;;;;;;;5.85;3.40;;;20.00;55.50;;;;;;4982997;28;20059;-53
2023/09/07 06:25:17;;;;;;;6.28;3.50;;;20.10;55.50;;;;;;4982659;28;20054;-56
2023/09/07 06:27:44;;;;;;;6.60;3.78;;;20.10;55.50;;;;;;4982735;28;20046;-55
2023/09/07 06:30:12;;;;;;;12.07;3.65;;;20.10;55.60;;;;;;4983397;28;20061;-55
2023/09/07 06:32:42;;;;;;;4.45;3.05;;;20.20;55.70;;;;;;4983944;28;20054;-55
2023/09/07 06:35:10;;;;;;;7.97;3.30;;;20.20;55.70;;;;;;4981736;28;21058;-55
2023/09/07 06:37:40;;;;;;;7.53;3.50;;;20.20;55.70;;;;;;4982955;28;20050;-55
2023/09/07 06:40:09;;;;;;;4.97;3.75;;;20.20;56.20;;;;;;4981855;28;20522;-55
2023/09/07 06:42:36;;;;;;;4.40;3.55;;;20.30;55.80;;;;;;4982634;28;20054;-56
2023/09/07 06:45:04;;;;;;;5.95;3.60;;;20.30;55.80;;;;;;4981558;28;20058;-55
2023/09/07 06:47:32;;;;;;;5.28;3.47;;;20.30;55.80;;;;;;4984005;28;20058;-55
2023/09/07 06:50:00;;;;;;;4.93;3.60;;;20.40;56.30;;;;;;4981512;28;20140;-52
2023/09/07 06:52:28;;;;;;;3.67;3.03;;;20.40;55.90;;;;;;4982461;28;20069;-55
2023/09/07 06:54:55;;;;;;;5.95;3.08;;;20.50;55.90;;;;;;4982559;28;20358;-55
2023/09/07 06:57:22;;;;;;;7.97;3.38;;;20.50;55.90;;;;;;4982330;28;20510;-55
2023/09/07 06:59:49;;;;;;;4.85;3.72;;;20.60;55.90;;;;;;4983052;28;20054;-56
2023/09/07 07:02:17;;;;;;;4.80;3.65;;;20.60;55.90;;;;;;4982360;28;20065;-55
2023/09/07 07:04:46;;;;;;;5.22;3.85;;;20.70;56.00;;;;;;4980738;28;20057;-55
2023/09/07 07:07:14;;;;;;;4.25;3.40;;;20.70;56.00;;;;;;4981676;28;20051;-55
2023/09/07 07:09:42;;;;;;;5.88;4.10;;;20.80;56.00;;;;;;4982550;28;20065;-55
2023/09/07 07:12:09;;;;;;;6.15;3.35;;;20.80;56.00;;;;;;4982090;28;20062;-55
2023/09/07 07:14:36;;;;;;;4.28;3.20;;;20.90;56.00;;;;;;4982913;28;20178;-56
2023/09/07 07:17:04;;;;;;;6.40;3.60;;;20.90;55.90;;;;;;4982666;28;20058;-55
2023/09/07 07:19:32;;;;;;;4.72;3.10;;;20.90;55.90;;;;;;4981617;28;20499;-52
2023/09/07 07:21:59;;;;;;;3.55;3.08;;;21.10;56.00;;;;;;4981266;28;20059;-55
2023/09/07 07:24:28;;;;;;;6.38;3.63;;;21.10;56.50;;;;;;4981555;28;20058;-55
2023/09/07 07:26:55;;;;;;;6.93;3.85;;;21.10;56.00;;;;;;4982556;28;20058;-55
2023/09/07 07:29:22;;;;;;;12.50;4.07;;;21.20;56.10;;;;;;4982405;28;20410;-55
2023/09/07 07:31:50;;;;;;;4.15;3.70;;;21.30;56.10;;;;;;4981713;28;20058;-56
2023/09/07 07:34:17;;;;;;;6.15;3.60;;;21.30;56.10;;;;;;4981565;28;20402;-54
2023/09/07 07:36:44;;;;;;;6.72;3.33;;;21.40;56.10;;;;;;4979136;28;20057;-54
2023/09/07 07:39:12;;;;;;;4.43;3.53;;;21.40;56.10;;;;;;4982429;28;20058;-55
2023/09/07 07:41:40;;;;;;;3.40;3.10;;;21.50;56.00;;;;;;4982698;28;20089;-45
2023/09/07 07:44:08;;;;;;;5.10;3.47;;;21.60;56.00;;;;;;4982562;28;20502;-49
2023/09/07 07:46:35;;;;;;;5.68;3.60;;;21.60;56.20;;;;;;4981200;28;20054;-44
2023/09/07 07:49:02;;;;;;;4.57;3.45;;;21.70;56.00;;;;;;4982404;28;20062;-47
2023/09/07 07:51:29;;;;;;;5.88;3.30;;;21.70;56.00;;;;;;4980842;28;20065;-47
2023/09/07 07:53:57;;;;;;;4.82;3.67;;;21.80;56.00;;;;;;4982388;28;20058;-44
2023/09/07 07:56:25;;;;;;;5.10;3.70;;;21.80;55.90;;;;;;4981455;28;20061;-44
2023/09/07 07:58:53;;;;;;;5.05;3.53;;;21.90;55.90;;;;;;4982058;28;20414;-46
2023/09/07 08:04:43;;;;;;;6.03;3.50;;;22.10;55.90;;;;;;4980925;28;20049;-45
2023/09/07 08:07:11;;;;;;;4.35;3.53;;;22.10;55.60;;;;;;4981657;28;20414;-51
2023/09/07 08:09:39;;;;;;;4.22;3.25;;;22.20;55.70;;;;;;4981458;28;20141;-46
2023/09/07 08:12:07;;;;;;;5.25;3.83;;;22.20;55.70;;;;;;4982709;28;20522;-47
2023/09/07 08:14:36;;;;;;;4.75;3.33;;;22.30;55.70;;;;;;4981698;28;20057;-50
2023/09/07 08:17:03;;;;;;;7.20;3.60;;;22.30;55.70;;;;;;4981919;28;20415;-43
2023/09/07 08:19:31;;;;;;;5.40;3.45;;;22.40;55.70;;;;;;4981768;28;20056;-44
2023/09/07 08:21:58;;;;;;;4.65;3.60;;;22.40;55.60;;;;;;4980313;28;20069;-44
2023/09/07 08:24:26;;;;;;;4.45;3.40;;;22.50;55.50;;;;;;4981497;28;20054;-44
2023/09/07 08:26:55;;;;;;;5.97;3.50;;;22.50;55.40;;;;;;4981203;28;20503;-50
2023/09/07 08:29:24;;;;;;;6.60;3.58;;;22.60;55.60;;;;;;4981547;28;20182;-44
2023/09/07 08:31:53;;;;;;;5.07;3.92;;;22.60;55.50;;;;;;4981202;28;20065;-44
2023/09/07 08:34:23;;;;;;;5.03;3.60;;;22.70;55.50;;;;;;4981019;28;20050;-46
2023/09/07 08:36:50;;;;;;;12.25;4.20;;;22.80;55.60;;;;;;4980223;28;20606;-43
2023/09/07 08:39:19;;;;;;;5.65;4.07;;;22.80;55.60;;;;;;4983442;28;20054;-51
2023/09/07 08:41:46;;;;;;;5.35;3.70;;;22.90;55.60;;;;;;4985960;28;20050;-48
2023/09/07 08:44:17;;;;;;;4.35;3.47;;;22.90;55.50;;;;;;4984296;28;20058;-50
2023/09/07 08:46:45;;;;;;;7.35;4.22;;;23.00;55.50;;;;;;4984876;28;20499;-43
2023/09/07 08:49:13;;;;;;;5.00;3.70;;;23.00;55.40;;;;;;4985179;28;20061;-43
2023/09/07 08:51:41;;;;;;;5.60;3.75;;;23.10;55.20;;;;;;4983561;28;20058;-46
2023/09/07 08:54:10;;;;;;;4.47;3.20;;;23.10;55.10;;;;;;4985882;28;20065;-46
2023/09/07 08:56:38;;;;;;;4.68;3.58;;;23.20;55.00;;;;;;4984741;28;20054;-54
2023/09/07 08:59:05;;;;;;;4.57;3.72;;;23.30;55.00;;;;;;4984952;28;20054;-42
2023/09/07 09:01:32;;;;;;;6.30;3.70;;;23.30;54.80;;;;;;4983639;28;20054;-43
2023/09/07 09:04:00;;;;;;;4.80;3.55;;;23.40;54.70;;;;;;4985181;28;20530;-43
2023/09/07 09:06:28;;;;;;;4.63;3.33;;;23.40;54.60;;;;;;4983068;28;20059;-43
2023/09/07 09:08:57;;;;;;;4.43;3.47;;;23.50;55.00;;;;;;4985167;28;20053;-50
2023/09/07 09:11:27;;;;;;;6.65;3.70;;;23.50;54.40;;;;;;4967450;28;20050;-43
2023/09/07 09:13:55;;;;;;;5.45;3.17;;;23.60;54.40;;;;;;4984493;28;20054;-47
2023/09/07 09:16:22;;;;;;;5.32;3.70;;;23.70;54.50;;;;;;4984124;28;20065;-45
2023/09/07 09:18:52;;;;;;;4.82;3.25;;;23.70;54.50;;;;;;4983673;28;20606;-43
2023/09/07 09:21:20;;;;;;;4.97;3.78;;;23.80;54.90;;;;;;4984066;28;20054;-45
2023/09/07 09:23:51;;;;;;;6.07;4.10;;;23.80;54.40;;;;;;4983622;28;20062;-52
2023/09/07 09:26:19;;;;;;;4.72;3.50;;;23.90;54.20;;;;;;4983814;28;20054;-44
2023/09/07 09:28:46;;;;;;;5.20;3.55;;;24.00;54.30;;;;;;4984120;28;20047;-43
2023/09/07 09:31:14;;;;;;;8.75;3.78;;;24.00;54.00;;;;;;4983476;28;20057;-43
2023/09/07 09:33:42;;;;;;;6.90;3.95;;;24.10;54.20;;;;;;4983555;28;20054;-43
2023/09/07 09:36:10;;;;;;;4.10;3.30;;;24.20;54.20;;;;;;4983066;28;20061;-52
2023/09/07 09:38:37;;;;;;;4.68;3.60;;;24.20;54.20;;;;;;4983715;28;20053;-47
2023/09/07 09:41:08;;;;;;;11.35;3.67;;;24.30;54.20;;;;;;4983506;28;20054;-43
2023/09/07 09:43:35;;;;;;;6.03;3.67;;;24.40;54.00;;;;;;4984066;28;20054;-44
2023/09/07 09:46:03;;;;;;;6.43;3.35;;;24.50;54.20;;;;;;4983744;28;20054;-44
2023/09/07 09:48:33;;;;;;;6.57;3.45;;;24.50;54.00;;;;;;4984186;28;20058;-47
2023/09/07 09:51:01;;;;;;;4.72;3.25;;;24.50;53.70;;;;;;4982602;28;20069;-43
2023/09/07 09:53:29;;;;;;;5.10;3.50;;;24.60;53.60;;;;;;4982673;28;20055;-48
2023/09/07 09:55:56;;;;;;;5.32;3.65;;;24.70;53.40;;;;;;4983304;28;20061;-44
2023/09/07 09:58:25;;;;;;;5.07;3.40;;;24.70;53.20;;;;;;4983784;28;20411;-48
2023/09/07 10:00:57;;;;;;;8.90;3.42;;;24.80;53.00;;;;;;4983704;28;20522;-56
2023/09/07 10:03:28;;;;;;;4.57;3.50;;;24.80;53.30;;;;;;4984788;28;20058;-56
2023/09/07 10:05:55;;;;;;;5.22;3.58;;;24.90;52.80;;;;;;4982305;28;20069;-55
2023/09/07 10:08:23;;;;;;;5.38;3.17;;;24.90;52.70;;;;;;4983835;28;20058;-57
2023/09/07 10:10:54;;;;;;;4.00;3.15;;;25.00;52.70;;;;;;4982094;28;20050;-55
2023/09/07 10:13:32;;;;;;;11.32;3.47;;;25.00;52.50;;;;;;4983920;28;20057;-55
2023/09/07 10:16:04;;;;;;;4.50;3.40;;;25.10;52.50;;;;;;4982853;28;20061;-55
2023/09/07 10:18:35;;;;;;;4.03;3.63;;;25.10;52.50;;;;;;4984155;28;20427;-56
2023/09/07 10:21:03;;;;;;;5.65;3.53;;;25.20;52.60;;;;;;4983436;28;20050;-54
2023/09/07 10:23:38;;;;;;;3.92;3.35;;;25.20;52.40;;;;;;4983451;28;20061;-55
2023/09/07 10:26:10;;;;;;;3.80;3.17;;;25.30;52.10;;;;;;4982434;28;20814;-56
2023/09/07 10:28:39;;;;;;;4.25;3.08;;;25.30;52.40;;;;;;4983055;28;20062;-55
2023/09/07 10:31:07;;;;;;;5.50;3.40;;;25.40;52.20;;;;;;4982962;28;20475;-54
2023/09/07 10:33:36;;;;;;;7.03;3.72;;;25.40;52.10;;;;;;4983827;28;20491;-54
2023/09/07 10:36:05;;;;;;;4.00;3.13;;;25.50;52.10;;;;;;4981105;28;20129;-49
2023/09/07 10:38:32;;;;;;;5.45;3.20;;;25.50;52.00;;;;;;4982194;28;20054;-55
2023/09/07 10:41:01;;;;;;;5.05;3.67;;;25.60;51.90;;;;;;4983418;28;20050;-56
2023/09/07 10:43:28;;;;;;;5.10;3.33;;;25.60;51.80;;;;;;4982443;28;20053;-55
2023/09/07 10:45:58;;;;;;;5.40;3.40;;;25.70;51.70;;;;;;4982522;28;20085;-55
2023/09/07 10:48:26;;;;;;;4.18;3.45;;;25.70;51.60;;;;;;4983309;28;20062;-50
2023/09/07 10:50:53;;;;;;;4.95;3.33;;;25.80;51.50;;;;;;4981579;28;20046;-55
2023/09/07 10:53:28;;;;;;;4.45;3.40;;;25.80;51.40;;;;;;4982589;28;20058;-54
2023/09/07 10:55:57;;;;;;;6.13;3.40;;;25.80;50.80;;;;;;4983114;28;20446;-53
2023/09/07 10:58:27;;;;;;;6.93;3.45;;;25.90;50.90;;;;;;4982223;28;20057;-56
2023/09/07 11:00:54;;;;;;;5.05;2.92;;;25.90;50.70;;;;;;4981667;28;20410;-56
2023/09/07 11:03:22;;;;;;;3.58;3.00;;;26.00;50.90;;;;;;4982353;28;20483;-55
2023/09/07 11:05:52;;;;;;;6.43;3.20;;;26.00;51.30;;;;;;4980063;28;20064;-55
2023/09/07 11:08:19;;;;;;;5.45;3.63;;;26.00;50.80;;;;;;4982804;28;20061;-55
2023/09/07 11:10:46;;;;;;;4.25;3.20;;;26.10;50.60;;;;;;4981864;28;20057;-44
2023/09/07 11:13:14;;;;;;;6.65;3.53;;;26.10;50.70;;;;;;4982037;28;20113;-43
2023/09/07 11:15:43;;;;;;;6.97;3.40;;;26.20;50.70;;;;;;4982532;28;20050;-44
2023/09/07 11:18:10;;;;;;;7.30;3.10;;;26.20;50.50;;;;;;4982374;28;20065;-44
2023/09/07 11:20:39;;;;;;;6.75;3.00;;;26.30;50.40;;;;;;4980508;28;20411;-43
2023/09/07 11:23:07;;;;;;;6.97;3.33;;;26.30;50.40;;;;;;4982451;28;20065;-44
2023/09/07 11:25:36;;;;;;;5.00;3.28;;;26.30;50.40;;;;;;4982278;28;20061;-45
2023/09/07 11:28:04;;;;;;;5.07;3.45;;;26.40;50.40;;;;;;4982659;28;20065;-44
2023/09/07 11:30:32;;;;;;;4.55;3.30;;;26.40;50.50;;;;;;4982655;28;20483;-45
2023/09/07 11:33:03;;;;;;;4.35;3.10;;;26.40;50.30;;;;;;4982287;28;20058;-45
2023/09/07 11:35:30;;;;;;;4.03;3.05;;;26.50;50.10;;;;;;4979868;28;20054;-43
2023/09/07 11:38:00;;;;;;;4.43;3.00;;;26.50;50.10;;;;;;4982347;28;20062;-44
2023/09/07 11:40:27;;;;;;;6.85;2.88;;;26.50;50.20;;;;;;4981862;28;20046;-45
2023/09/07 11:42:55;;;;;;;3.53;3.17;;;26.60;50.20;;;;;;4981950;28;20058;-42
2023/09/07 11:45:22;;;;;;;3.97;3.40;;;26.60;50.10;;;;;;4982326;28;20610;-43
2023/09/07 11:47:49;;;;;;;4.15;3.30;;;26.70;49.70;;;;;;4982066;28;20065;-45
2023/09/07 11:50:18;;;;;;;4.90;3.40;;;26.80;49.40;;;;;;4980318;28;20077;-44
2023/09/07 11:52:45;;;;;;;4.55;3.63;;;26.80;49.30;;;;;;4981510;28;20057;-44
2023/09/07 11:55:16;;;;;;;4.32;3.13;;;26.80;49.00;;;;;;4981983;28;20047;-43
2023/09/07 11:57:44;;;;;;;5.22;2.78;;;26.90;49.20;;;;;;4982650;28;20502;-43
2023/09/07 12:00:12;;;;;;;3.80;2.97;;;26.90;49.20;;;;;;4981059;28;20054;-44
2023/09/07 12:02:40;;;;;;;3.17;2.88;;;26.90;49.00;;;;;;4981583;28;20498;-51
2023/09/07 12:05:09;;;;;;;3.97;3.22;;;27.00;49.20;;;;;;4979613;28;20069;-45
2023/09/07 12:07:37;;;;;;;3.55;3.17;;;27.00;49.00;;;;;;4981255;28;20073;-48
2023/09/07 12:10:05;;;;;;;4.47;2.90;;;27.10;48.80;;;;;;4980485;28;20054;-45
2023/09/07 12:12:33;;;;;;;4.80;3.35;;;27.10;48.60;;;;;;4982825;28;20507;-43
2023/09/07 12:15:00;;;;;;;7.90;3.15;;;27.20;48.50;;;;;;4983723;28;20058;-44
2023/09/07 12:17:28;;;;;;;3.92;2.70;;;27.20;48.20;;;;;;4985173;28;20434;-44
2023/09/07 12:19:55;;;;;;;5.07;3.13;;;27.20;48.00;;;;;;4984408;28;20065;-44
2023/09/07 12:22:22;;;;;;;3.67;2.92;;;27.30;47.60;;;;;;4985563;28;20054;-44
2023/09/07 12:24:50;;;;;;;4.07;3.10;;;27.30;47.50;;;;;;4985301;28;20061;-51
2023/09/07 12:27:18;;;;;;;5.47;3.35;;;27.30;47.10;;;;;;4985147;28;20058;-45
2023/09/07 12:29:46;;;;;;;3.80;3.10;;;27.30;46.90;;;;;;4984390;28;20510;-43
2023/09/07 12:32:14;;;;;;;4.55;3.42;;;27.40;46.80;;;;;;4984918;28;20055;-41
2023/09/07 12:34:41;;;;;;;7.38;3.10;;;27.40;46.60;;;;;;4984543;28;20050;-51
2023/09/07 12:37:08;;;;;;;5.18;3.05;;;27.40;46.20;;;;;;4984942;28;20498;-49
2023/09/07 12:39:35;;;;;;;10.02;3.38;;;27.40;46.10;;;;;;4985973;28;20054;-47
2023/09/07 12:42:03;;;;;;;3.53;2.85;;;27.40;46.10;;;;;;4984297;28;20058;-47
2023/09/07 12:44:30;;;;;;;4.10;2.72;;;27.50;46.40;;;;;;4985092;28;20065;-48
2023/09/07 12:46:58;;;;;;;4.15;3.10;;;27.50;46.30;;;;;;4984503;28;20047;-43
2023/09/07 12:49:26;;;;;;;6.10;3.30;;;27.50;46.00;;;;;;4985450;28;20054;-46
2023/09/07 12:51:53;;;;;;;4.65;3.15;;;27.50;46.00;;;;;;4984380;28;20134;-43
2023/09/07 12:54:20;;;;;;;6.20;3.22;;;27.60;45.70;;;;;;4985213;28;20058;-50
2023/09/07 12:56:47;;;;;;;4.93;3.28;;;27.60;45.30;;;;;;4984632;28;20511;-42
2023/09/07 12:59:15;;;;;;;5.03;3.28;;;27.60;45.40;;;;;;4983936;28;20064;-46
2023/09/07 13:01:42;;;;;;;3.35;2.70;;;27.60;45.20;;;;;;4984321;28;20050;-46